createdAt,value
2022-08-07T00:00:27.476Z,19.6
2022-08-07T00:02:39.816Z,19.6
2022-08-07T00:04:28.523Z,19.5
2022-08-07T00:06:33.057Z,19.5
2022-08-07T00:08:29.100Z,19.5
2022-08-07T00:10:30.941Z,19.5
2022-08-07T00:12:30.136Z,19.5
2022-08-07T00:14:31.024Z,19.5
2022-08-07T00:16:30.721Z,19.4
2022-08-07T00:18:31.769Z,19.4
2022-08-07T00:20:34.247Z,19.4
2022-08-07T00:22:35.147Z,19.2
2022-08-07T00:24:32.236Z,19.2
2022-08-07T00:26:59.014Z,19.2
2022-08-07T00:28:34.459Z,19.2
2022-08-07T00:30:33.241Z,19.2
2022-08-07T00:32:34.879Z,19.2
2022-08-07T00:34:35.419Z,19.2
2022-08-07T00:36:34.392Z,19.2
2022-08-07T00:38:35.651Z,19.2
2022-08-07T00:40:40.491Z,19.2
2022-08-07T00:42:36.565Z,19.1
2022-08-07T00:44:41.269Z,19.1
2022-08-07T00:46:36.276Z,19.1
2022-08-07T00:48:36.710Z,19.1
2022-08-07T00:50:43.549Z,19.1
2022-08-07T00:52:37.701Z,19.1
2022-08-07T00:54:40.644Z,19.1
2022-08-07T00:56:38.339Z,19
2022-08-07T00:58:41.871Z,19
2022-08-07T01:00:39.152Z,19
2022-08-07T01:02:39.652Z,19
2022-08-07T01:04:40.458Z,19
2022-08-07T01:06:40.139Z,19.1
2022-08-07T01:08:43.111Z,19.1
2022-08-07T01:10:47.621Z,19.1
2022-08-07T01:12:53.447Z,19.1
2022-08-07T01:14:41.838Z,19.1
2022-08-07T01:16:43.122Z,19.1
2022-08-07T01:18:42.781Z,19.1
2022-08-07T01:20:57.293Z,19.1
2022-08-07T01:22:46.716Z,19.1
2022-08-07T01:24:44.537Z,19.1
2022-08-07T01:26:44.061Z,19
2022-08-07T01:28:48.328Z,19
2022-08-07T01:30:46.796Z,19
2022-08-07T01:32:45.197Z,19
2022-08-07T01:34:47.300Z,19
2022-08-07T01:36:52.938Z,19.1
2022-08-07T01:38:52.775Z,19.1
2022-08-07T01:40:49.740Z,18.9
2022-08-07T01:42:57.422Z,18.9
2022-08-07T01:44:47.970Z,18.9
2022-08-07T01:46:47.886Z,19
2022-08-07T01:48:53.026Z,19
2022-08-07T01:50:52.959Z,19
2022-08-07T01:52:54.408Z,19
2022-08-07T01:54:52.135Z,19
2022-08-07T01:56:53.940Z,18.9
2022-08-07T01:58:53.994Z,18.9
2022-08-07T02:01:09.476Z,18.9
2022-08-07T02:03:18.354Z,18.9
2022-08-07T02:04:57.418Z,18.9
2022-08-07T02:06:54.387Z,19
2022-08-07T02:08:54.426Z,19
2022-08-07T02:10:55.063Z,19.1
2022-08-07T02:12:59.759Z,19.1
2022-08-07T02:15:06.711Z,19.2
2022-08-07T02:16:55.652Z,19.2
2022-08-07T02:18:58.018Z,19.2
2022-08-07T02:20:57.508Z,19.3
2022-08-07T02:23:01.617Z,19.3
2022-08-07T02:24:56.499Z,19.3
2022-08-07T02:26:55.647Z,19.3
2022-08-07T02:28:56.433Z,19.3
2022-08-07T02:30:57.004Z,19.3
2022-08-07T02:33:03.699Z,19.3
2022-08-07T02:34:58.719Z,19.3
2022-08-07T02:36:57.775Z,19.3
2022-08-07T02:38:59.722Z,19.4
2022-08-07T02:40:58.708Z,19.4
2022-08-07T02:43:00.218Z,19.3
2022-08-07T02:45:19.897Z,19.3
2022-08-07T02:47:02.058Z,19.4
2022-08-07T02:48:59.079Z,19.4
2022-08-07T02:51:04.394Z,19.4
2022-08-07T02:53:06.147Z,19.4
2022-08-07T02:55:27.396Z,19.4
2022-08-07T02:57:02.482Z,19.5
2022-08-07T02:59:05.766Z,19.5
2022-08-07T03:01:03.355Z,19.5
2022-08-07T03:03:06.036Z,19.6
2022-08-07T03:05:04.828Z,19.6
2022-08-07T03:07:07.378Z,19.6
2022-08-07T03:09:05.689Z,19.6
2022-08-07T03:11:07.992Z,19.7
2022-08-07T03:13:05.485Z,19.7
2022-08-07T03:15:07.715Z,19.7
2022-08-07T03:17:05.887Z,19.7
2022-08-07T03:19:05.325Z,19.8
2022-08-07T03:21:08.572Z,19.8
2022-08-07T03:23:19.036Z,19.9
2022-08-07T03:25:12.320Z,20
2022-08-07T03:27:13.952Z,20
2022-08-07T03:29:11.016Z,20
2022-08-07T03:31:08.580Z,20
2022-08-07T03:33:10.060Z,20
2022-08-07T03:35:17.501Z,20
2022-08-07T03:37:12.456Z,20.1
2022-08-07T03:39:12.648Z,20.1
2022-08-07T03:41:10.516Z,20.2
2022-08-07T03:43:14.426Z,20.2
2022-08-07T03:45:11.849Z,20.4
2022-08-07T03:47:14.335Z,20.4
2022-08-07T03:49:14.315Z,20.5
2022-08-07T03:51:14.060Z,20.7
2022-08-07T03:53:13.081Z,20.7
2022-08-07T03:55:15.622Z,20.7
2022-08-07T03:58:08.777Z,20.7
2022-08-07T03:59:17.362Z,20.7
2022-08-07T04:01:16.848Z,20.8
2022-08-07T04:03:15.702Z,21
2022-08-07T04:05:18.413Z,21
2022-08-07T04:07:17.390Z,21
2022-08-07T04:09:19.323Z,21.1
2022-08-07T04:12:21.124Z,21.1
2022-08-07T04:13:19.342Z,21.3
2022-08-07T04:15:19.745Z,21.4
2022-08-07T04:17:21.826Z,21.4
2022-08-07T04:19:23.435Z,21.4
2022-08-07T04:21:20.670Z,21.6
2022-08-07T04:23:22.390Z,21.6
2022-08-07T04:25:23.655Z,21.8
2022-08-07T04:27:36.001Z,21.8
2022-08-07T04:29:22.762Z,21.9
2022-08-07T04:31:39.198Z,21.9
2022-08-07T04:33:25.638Z,22
2022-08-07T04:35:25.522Z,22
2022-08-07T04:37:26.111Z,22.1
2022-08-07T04:39:26.409Z,22.2
2022-08-07T04:41:26.526Z,22.2
2022-08-07T04:44:12.022Z,22.3
2022-08-07T04:45:58.138Z,22.4
2022-08-07T04:47:58.822Z,22.4
2022-08-07T04:49:39.523Z,22.6
2022-08-07T04:51:41.061Z,22.6
2022-08-07T04:54:01.568Z,22.6
2022-08-07T04:58:09.703Z,22.7
2022-08-07T04:58:11.763Z,22.6
2022-08-07T05:00:11.510Z,22.9
2022-08-07T05:01:43.903Z,23.1
2022-08-07T05:04:07.783Z,23.1
2022-08-07T05:05:52.147Z,23.1
2022-08-07T05:07:48.105Z,23.1
2022-08-07T05:09:45.307Z,23.2
2022-08-07T05:11:56.892Z,23.4
2022-08-07T05:14:54.219Z,23.4
2022-08-07T05:15:43.527Z,23.4
2022-08-07T05:17:52.455Z,23.6
2022-08-07T05:19:48.056Z,23.6
2022-08-07T05:21:59.864Z,23.7
2022-08-07T05:23:47.249Z,23.7
2022-08-07T05:26:10.567Z,24.1
2022-08-07T05:28:03.104Z,24.2
2022-08-07T05:29:50.938Z,24.2
2022-08-07T05:31:52.716Z,24.2
2022-08-07T05:33:51.320Z,24.4
2022-08-07T05:35:46.547Z,24.5
2022-08-07T05:37:46.978Z,24.6
2022-08-07T05:40:16.881Z,24.6
2022-08-07T05:42:01.113Z,24.8
2022-08-07T05:44:12.735Z,24.8
2022-08-07T05:45:51.959Z,24.8
2022-08-07T05:48:01.806Z,24.9
2022-08-07T05:49:52.280Z,24.9
2022-08-07T05:51:53.275Z,25.1
2022-08-07T05:54:09.488Z,25.1
2022-08-07T05:56:02.866Z,25.1
2022-08-07T05:57:54.890Z,25.3
2022-08-07T05:59:58.007Z,25.5
2022-08-07T06:01:57.728Z,25.7
2022-08-07T06:04:00.907Z,25.8
2022-08-07T06:05:58.726Z,25.9
2022-08-07T06:08:13.682Z,25.9
2022-08-07T06:10:05.209Z,26.1
2022-08-07T06:11:59.720Z,26.2
2022-08-07T06:14:12.719Z,26.3
2022-08-07T06:16:02.865Z,26.4
2022-08-07T06:18:02.052Z,26.6
2022-08-07T06:20:03.938Z,26.8
2022-08-07T06:22:15.896Z,26.9
2022-08-07T06:24:46.106Z,27.1
2022-08-07T06:26:05.749Z,27.2
2022-08-07T06:28:08.469Z,27.3
2022-08-07T06:30:07.623Z,27.3
2022-08-07T06:32:07.113Z,27.3
2022-08-07T06:34:07.933Z,27.3
2022-08-07T06:36:13.720Z,27.4
2022-08-07T06:38:10.057Z,27.4
2022-08-07T06:40:17.602Z,27.4
2022-08-07T06:42:33.197Z,27.7
2022-08-07T06:44:14.061Z,27.9
2022-08-07T06:46:15.617Z,28
2022-08-07T06:48:24.667Z,28.1
2022-08-07T06:50:15.451Z,28.1
2022-08-07T06:52:17.529Z,28
2022-08-07T06:55:34.341Z,28
2022-08-07T06:56:20.033Z,28
2022-08-07T06:58:28.754Z,28.3
2022-08-07T07:00:20.579Z,28.2
2022-08-07T07:02:27.101Z,28.2
2022-08-07T07:04:28.545Z,28.2
2022-08-07T07:06:26.333Z,28.3
2022-08-07T07:08:26.542Z,28.3
2022-08-07T07:10:27.749Z,28.5
2022-08-07T07:12:37.830Z,28.4
2022-08-07T07:14:27.248Z,28.4
2022-08-07T07:16:30.724Z,28.6
2022-08-07T07:18:47.762Z,28.6
2022-08-07T07:20:32.767Z,28.7
2022-08-07T07:22:37.000Z,28.7
2022-08-07T07:24:28.845Z,28.7
2022-08-07T07:26:36.877Z,28.9
2022-08-07T07:28:48.697Z,29.1
2022-08-07T07:30:39.710Z,29.2
2022-08-07T07:32:35.855Z,29
2022-08-07T07:34:34.041Z,28.8
2022-08-07T07:36:36.330Z,28.9
2022-08-07T07:38:34.981Z,29.1
2022-08-07T07:40:37.656Z,29.3
2022-08-07T07:42:36.940Z,29.5
2022-08-07T07:44:41.191Z,29.5
2022-08-07T07:46:56.031Z,29.2
2022-08-07T07:48:40.635Z,29.4
2022-08-07T07:50:40.155Z,29.5
2022-08-07T07:52:42.257Z,29.4
2022-08-07T07:54:50.761Z,29.7
2022-08-07T07:56:42.761Z,29.8
2022-08-07T07:58:43.609Z,29.8
2022-08-07T08:00:45.760Z,29.8
2022-08-07T08:03:04.701Z,30
2022-08-07T08:04:45.065Z,30
2022-08-07T08:06:52.072Z,29.9
2022-08-07T08:08:48.185Z,30.3
2022-08-07T08:10:47.840Z,30.3
2022-08-07T08:12:58.988Z,30.1
2022-08-07T08:14:47.822Z,30.2
2022-08-07T08:16:50.884Z,30.2
2022-08-07T08:18:53.999Z,30.6
2022-08-07T08:20:51.050Z,30.8
2022-08-07T08:22:55.813Z,30.8
2022-08-07T08:24:57.360Z,31.2
2022-08-07T08:26:54.383Z,31.4
2022-08-07T08:28:55.032Z,31.6
2022-08-07T08:30:56.853Z,31.9
2022-08-07T08:32:58.496Z,31.6
2022-08-07T08:34:57.858Z,30.9
2022-08-07T08:36:58.174Z,31
2022-08-07T08:38:59.082Z,30.9
2022-08-07T08:41:04.673Z,31.1
2022-08-07T08:43:08.080Z,31.3
2022-08-07T08:45:13.499Z,31.4
2022-08-07T08:47:09.844Z,31.4
2022-08-07T08:49:09.805Z,31.8
2022-08-07T08:51:14.694Z,32.2
2022-08-07T08:53:08.663Z,32.2
2022-08-07T08:55:09.735Z,32.2
2022-08-07T08:57:07.513Z,32.1
2022-08-07T08:59:16.413Z,32.1
2022-08-07T09:01:15.893Z,31.8
2022-08-07T09:03:18.202Z,31
2022-08-07T09:05:26.441Z,31.2
2022-08-07T09:07:23.153Z,30.4
2022-08-07T09:09:21.071Z,30.2
2022-08-07T09:11:24.684Z,29.7
2022-08-07T09:13:18.261Z,29.5
2022-08-07T09:16:20.036Z,29.5
2022-08-07T09:17:20.948Z,29.8
2022-08-07T09:19:52.962Z,30.3
2022-08-07T09:21:34.442Z,30.4
2022-08-07T09:24:33.579Z,29.9
2022-08-07T09:25:20.884Z,29.8
2022-08-07T09:27:28.943Z,29.7
2022-08-07T09:30:04.031Z,29.8
2022-08-07T09:31:22.841Z,30
2022-08-07T09:33:52.670Z,29.5
2022-08-07T09:36:04.741Z,29.3
2022-08-07T09:37:47.743Z,28.9
2022-08-07T09:39:53.769Z,29.1
2022-08-07T09:41:36.292Z,29.5
2022-08-07T09:44:03.545Z,29.9
2022-08-07T09:47:42.499Z,30.1
2022-08-07T09:47:55.924Z,30.1
2022-08-07T09:50:00.886Z,30.3
2022-08-07T09:52:16.701Z,30.3
2022-08-07T09:53:25.299Z,30.5
2022-08-07T09:56:04.486Z,30.7
2022-08-07T09:57:48.560Z,29.8
2022-08-07T09:59:46.302Z,29.7
2022-08-07T10:01:52.052Z,29.4
2022-08-07T10:04:06.407Z,29.1
2022-08-07T10:06:00.135Z,28.2
2022-08-07T10:07:53.461Z,25.6
2022-08-07T10:09:59.000Z,23.2
2022-08-07T10:12:03.396Z,22.1
2022-08-07T10:14:00.458Z,21.6
2022-08-07T10:15:53.928Z,21.4
2022-08-07T10:18:01.103Z,20.9
2022-08-07T10:19:45.403Z,20.4
2022-08-07T10:22:12.388Z,20.4
2022-08-07T10:24:05.192Z,20.6
2022-08-07T10:25:46.199Z,20.8
2022-08-07T10:27:51.465Z,20.8
2022-08-07T10:29:51.449Z,20.8
2022-08-07T10:31:52.594Z,20.8
2022-08-07T10:34:05.932Z,20.7
2022-08-07T10:35:56.281Z,20.8
2022-08-07T10:37:48.712Z,21
2022-08-07T10:40:03.462Z,21.3
2022-08-07T10:41:46.986Z,21.4
2022-08-07T10:44:02.282Z,21.5
2022-08-07T10:45:57.482Z,21.7
2022-08-07T10:47:52.516Z,21.8
2022-08-07T10:49:49.797Z,21.8
2022-08-07T10:52:01.497Z,21.8
2022-08-07T10:53:45.114Z,22
2022-08-07T10:55:46.633Z,22
2022-08-07T10:57:59.364Z,22
2022-08-07T11:00:01.642Z,22.1
2022-08-07T11:01:51.332Z,22.1
2022-08-07T11:03:55.136Z,22
2022-08-07T11:05:48.831Z,22
2022-08-07T11:07:59.182Z,22
2022-08-07T11:10:08.855Z,22
2022-08-07T11:11:51.957Z,22.2
2022-08-07T11:14:45.853Z,22.1
2022-08-07T11:15:54.437Z,22
2022-08-07T11:17:50.089Z,22.1
2022-08-07T11:19:49.751Z,22.1
2022-08-07T11:21:53.604Z,22
2022-08-07T11:23:52.132Z,21.7
2022-08-07T11:25:52.110Z,21.6
2022-08-07T11:28:02.899Z,21.6
2022-08-07T11:30:10.086Z,21.6
2022-08-07T11:31:53.334Z,21.8
2022-08-07T11:34:00.239Z,21.8
2022-08-07T11:35:59.793Z,21.8
2022-08-07T11:38:12.458Z,21.8
2022-08-07T11:40:01.986Z,22
2022-08-07T11:42:02.421Z,22
2022-08-07T11:46:13.894Z,22.1
2022-08-07T11:48:18.162Z,22.2
2022-08-07T11:50:32.036Z,22.2
2022-08-07T11:52:02.916Z,22.2
2022-08-07T11:54:01.086Z,22.2
2022-08-07T11:56:09.719Z,22.3
2022-08-07T11:58:01.210Z,22.3
2022-08-07T12:00:18.402Z,22.4
2022-08-07T12:02:02.184Z,22.4
2022-08-07T12:04:10.426Z,22.6
2022-08-07T12:06:39.639Z,22.8
2022-08-07T12:08:03.804Z,22.9
2022-08-07T12:10:02.030Z,23
2022-08-07T12:12:10.173Z,23.2
2022-08-07T12:14:04.582Z,23.2
2022-08-07T12:16:06.127Z,23.3
2022-08-07T12:18:08.033Z,23.5
2022-08-07T12:20:04.701Z,23.5
2022-08-07T12:22:38.622Z,23.5
2022-08-07T12:24:12.407Z,23.5
2022-08-07T12:26:28.965Z,23.6
2022-08-07T12:28:09.116Z,23.7
2022-08-07T12:30:03.275Z,23.9
2022-08-07T12:32:12.616Z,23.9
2022-08-07T12:34:04.214Z,24
2022-08-07T12:36:03.144Z,23.9
2022-08-07T12:38:10.034Z,23.7
2022-08-07T12:40:04.244Z,23.7
2022-08-07T12:42:04.489Z,23.8
2022-08-07T12:44:10.381Z,24
2022-08-07T12:46:26.653Z,24.2
2022-08-07T12:48:13.154Z,24.3
2022-08-07T12:50:39.053Z,24.2
2022-08-07T12:52:14.643Z,24.4
2022-08-07T12:54:36.859Z,24.6
2022-08-07T12:56:11.640Z,24.7
2022-08-07T12:58:10.159Z,24.8
2022-08-07T13:00:16.450Z,24.8
2022-08-07T13:02:27.017Z,24.7
2022-08-07T13:04:32.563Z,24.8
2022-08-07T13:06:27.191Z,24.9
2022-08-07T13:08:25.827Z,24.9
2022-08-07T13:10:38.259Z,25.1
2022-08-07T13:12:18.515Z,25.2
2022-08-07T13:14:30.471Z,25.2
2022-08-07T13:16:16.381Z,25.1
2022-08-07T13:18:26.250Z,25.1
2022-08-07T13:20:19.712Z,25.1
2022-08-07T13:22:29.840Z,25.1
2022-08-07T13:24:25.804Z,25.1
2022-08-07T13:26:21.635Z,25
2022-08-07T13:28:24.338Z,24.9
2022-08-07T13:30:19.503Z,24.7
2022-08-07T13:32:31.578Z,24.6
2022-08-07T13:34:34.193Z,24.5
2022-08-07T13:36:22.375Z,24.5
2022-08-07T13:38:20.957Z,24.5
2022-08-07T13:40:35.413Z,24.4
2022-08-07T13:42:25.102Z,24.4
2022-08-07T13:44:26.011Z,24.4
2022-08-07T13:46:25.516Z,24.2
2022-08-07T13:48:33.887Z,24.1
2022-08-07T13:50:33.289Z,23.9
2022-08-07T13:52:26.523Z,23.7
2022-08-07T13:54:29.129Z,23.6
2022-08-07T13:56:36.404Z,23.4
2022-08-07T13:58:28.086Z,23.3
2022-08-07T14:00:34.358Z,23.3
2022-08-07T14:02:33.255Z,23.3
2022-08-07T14:04:35.466Z,23.4
2022-08-07T14:06:31.171Z,23.6
2022-08-07T14:08:26.473Z,23.7
2022-08-07T14:10:28.210Z,23.9
2022-08-07T14:12:31.954Z,23.9
2022-08-07T14:14:28.705Z,23.9
2022-08-07T14:16:32.615Z,23.8
2022-08-07T14:18:31.246Z,23.8
2022-08-07T14:20:43.389Z,23.8
2022-08-07T14:22:34.633Z,23.8
2022-08-07T14:24:33.635Z,23.8
2022-08-07T14:26:36.773Z,23.7
2022-08-07T14:28:33.231Z,23.7
2022-08-07T14:30:32.578Z,23.5
2022-08-07T14:32:35.904Z,23.5
2022-08-07T14:34:32.880Z,23.4
2022-08-07T14:36:33.025Z,23.3
2022-08-07T14:38:33.433Z,23.2
2022-08-07T14:40:35.374Z,23
2022-08-07T14:42:34.679Z,22.9
2022-08-07T14:44:33.998Z,22.9
2022-08-07T14:46:35.075Z,22.8
2022-08-07T14:48:37.028Z,22.7
2022-08-07T14:50:42.030Z,22.7
2022-08-07T14:52:36.962Z,22.7
2022-08-07T14:54:42.244Z,22.7
2022-08-07T14:56:41.569Z,22.7
2022-08-07T14:58:40.063Z,22.5
2022-08-07T15:00:38.744Z,22.4
2022-08-07T15:04:40.230Z,22.2
2022-08-07T15:06:47.825Z,22.1
2022-08-07T15:08:49.984Z,22
2022-08-07T15:10:58.951Z,22
2022-08-07T15:12:42.266Z,22
2022-08-07T15:14:57.569Z,22
2022-08-07T15:16:54.940Z,22.1
2022-08-07T15:18:45.589Z,22.1
2022-08-07T15:20:55.321Z,22.1
2022-08-07T15:22:51.573Z,22.1
2022-08-07T15:25:16.236Z,22.1
2022-08-07T15:26:47.061Z,22
2022-08-07T15:31:04.588Z,22
2022-08-07T15:34:50.259Z,22.2
2022-08-07T15:37:03.330Z,22.2
2022-08-07T15:38:59.249Z,22.2
2022-08-07T15:41:00.144Z,22.3
2022-08-07T15:42:52.605Z,22.3
2022-08-07T15:44:52.063Z,22.3
2022-08-07T15:46:56.785Z,22.3
2022-08-07T15:49:04.018Z,22.3
2022-08-07T15:51:07.818Z,22.3
2022-08-07T15:52:51.688Z,22.3
2022-08-07T15:54:51.262Z,22.3
2022-08-07T15:56:51.036Z,22.4
2022-08-07T15:58:53.798Z,22.3
2022-08-07T16:00:51.145Z,22.2
2022-08-07T16:02:54.973Z,22.2
2022-08-07T16:04:55.968Z,22.2
2022-08-07T16:06:54.464Z,22.1
2022-08-07T16:08:57.054Z,22.1
2022-08-07T16:10:59.067Z,22.1
2022-08-07T16:13:17.917Z,22.1
2022-08-07T16:15:04.122Z,22.1
2022-08-07T16:17:15.438Z,22.1
2022-08-07T16:19:09.657Z,22.1
2022-08-07T16:22:01.751Z,22
2022-08-07T16:23:12.033Z,22
2022-08-07T16:25:01.857Z,22
2022-08-07T16:27:18.340Z,21.9
2022-08-07T16:30:07.340Z,21.8
2022-08-07T16:31:12.210Z,21.8
2022-08-07T16:34:02.320Z,21.8
2022-08-07T16:35:51.953Z,21.8
2022-08-07T16:38:04.470Z,21.8
2022-08-07T16:39:17.728Z,21.7
2022-08-07T16:41:19.255Z,21.7
2022-08-07T16:43:12.496Z,21.7
2022-08-07T16:45:15.388Z,21.7
2022-08-07T16:47:49.626Z,21.5
2022-08-07T16:50:28.788Z,21.5
2022-08-07T16:51:53.990Z,21.5
2022-08-07T16:54:02.413Z,21.4
2022-08-07T16:55:13.185Z,21.4
2022-08-07T16:58:00.896Z,21.4
2022-08-07T16:59:11.234Z,21.4
2022-08-07T17:01:34.642Z,21.2
2022-08-07T17:03:17.395Z,21.2
2022-08-07T17:06:28.244Z,21.2
2022-08-07T17:07:16.145Z,21.2
2022-08-07T17:10:05.309Z,21.1
2022-08-07T17:11:14.398Z,21.1
2022-08-07T17:13:41.238Z,21.1
2022-08-07T17:15:17.901Z,21.1
2022-08-07T17:17:21.564Z,21.2
2022-08-07T17:19:17.336Z,21.2
2022-08-07T17:21:18.430Z,21.2
2022-08-07T17:23:32.417Z,21.2
2022-08-07T17:25:15.721Z,21.2
2022-08-07T17:27:29.696Z,21.3
2022-08-07T17:30:15.733Z,21.3
2022-08-07T17:31:15.941Z,21.3
2022-08-07T17:34:09.066Z,21.1
2022-08-07T17:35:50.459Z,21.1
2022-08-07T17:38:05.736Z,21.2
2022-08-07T17:39:19.430Z,21.2
2022-08-07T17:40:09.047Z,21.2
2022-08-07T17:40:30.555Z,21.6
2022-08-07T17:40:43.349Z,21.2
2022-08-07T17:42:01.860Z,21.2
2022-08-07T17:42:03.051Z,21.2
2022-08-07T17:42:59.753Z,21.6
2022-08-07T17:43:18.519Z,21
2022-08-07T17:44:01.328Z,21.6
2022-08-07T17:44:01.853Z,21
2022-08-07T17:45:19.522Z,21
2022-08-07T17:47:37.682Z,20.9
2022-08-07T17:49:24.109Z,20.9
2022-08-07T17:51:21.602Z,20.7
2022-08-07T17:54:00.133Z,20.7
2022-08-07T17:56:00.723Z,20.7
2022-08-07T17:57:56.605Z,20.7
2022-08-07T17:59:24.919Z,20.6
2022-08-07T18:01:22.568Z,20.6
2022-08-07T18:03:25.604Z,20.6
2022-08-07T18:05:27.727Z,20.5
2022-08-07T18:07:36.872Z,20.5
2022-08-07T18:10:04.683Z,20.5
2022-08-07T18:12:16.404Z,20.5
2022-08-07T18:13:40.885Z,20.5
2022-08-07T18:15:32.562Z,20.5
2022-08-07T18:18:47.449Z,20.5
2022-08-07T18:21:07.527Z,20.5
2022-08-07T18:21:54.890Z,20.5
2022-08-07T18:23:43.461Z,20.4
2022-08-07T18:25:40.968Z,20.4
2022-08-07T18:27:38.384Z,20.3
2022-08-07T18:30:07.039Z,20.3
2022-08-07T18:31:41.428Z,20.3
2022-08-07T18:33:54.917Z,20.3
2022-08-07T18:35:50.270Z,20.3
2022-08-07T18:38:56.752Z,20.2
2022-08-07T18:40:07.038Z,20.2
2022-08-07T18:41:45.891Z,20
2022-08-07T18:43:49.039Z,20
2022-08-07T18:45:44.277Z,20
2022-08-07T18:47:44.866Z,20
2022-08-07T18:50:29.844Z,20
2022-08-07T18:52:37.962Z,20
2022-08-07T18:53:50.619Z,20
2022-08-07T18:55:55.406Z,20
2022-08-07T18:57:59.433Z,20
2022-08-07T18:59:47.276Z,20
2022-08-07T19:02:33.111Z,20
2022-08-07T19:03:42.020Z,20
2022-08-07T19:06:03.907Z,20.1
2022-08-07T19:07:38.005Z,20.1
2022-08-07T19:09:57.609Z,20.1
2022-08-07T19:12:04.209Z,20.2
2022-08-07T19:13:46.253Z,20.2
2022-08-07T19:16:04.956Z,20.2
2022-08-07T19:18:03.884Z,20.3
2022-08-07T19:19:41.376Z,20.3
2022-08-07T19:21:51.501Z,20.3
2022-08-07T19:23:58.611Z,20.3
2022-08-07T19:26:23.632Z,20.3
2022-08-07T19:28:57.775Z,20.3
2022-08-07T19:31:03.179Z,20.3
2022-08-07T19:32:07.954Z,20.3
2022-08-07T19:33:39.737Z,20.3
2022-08-07T19:35:39.082Z,20.3
2022-08-07T19:37:57.210Z,20.2
2022-08-07T19:39:56.635Z,20.2
2022-08-07T19:42:05.543Z,20.2
2022-08-07T19:43:49.135Z,20.2
2022-08-07T19:46:06.037Z,20.2
2022-08-07T19:47:42.162Z,20.2
2022-08-07T19:49:57.823Z,20.2
2022-08-07T19:51:52.229Z,20.2
2022-08-07T19:54:33.334Z,20.2
2022-08-07T19:55:56.281Z,20.2
2022-08-07T19:58:00.427Z,20.2
2022-08-07T19:59:45.121Z,20.2
2022-08-07T20:01:55.878Z,20.2
2022-08-07T20:03:42.593Z,20.2
2022-08-07T20:06:00.865Z,20.2
2022-08-07T20:07:47.637Z,20.2
2022-08-07T20:10:35.141Z,20.2
2022-08-07T20:12:22.347Z,20.2
2022-08-07T20:13:47.881Z,20.2
2022-08-07T20:15:47.050Z,20.2
2022-08-07T20:17:45.936Z,20.2
2022-08-07T20:19:58.315Z,20.2
2022-08-07T20:21:48.561Z,20.2
2022-08-07T20:23:53.842Z,20.2
2022-08-07T20:25:50.986Z,20.2
2022-08-07T20:27:57.869Z,20.2
2022-08-07T20:29:56.800Z,20.2
2022-08-07T20:31:48.958Z,20.2
2022-08-07T20:33:52.036Z,20.2
2022-08-07T20:35:54.298Z,20.2
2022-08-07T20:37:59.195Z,20.2
2022-08-07T20:40:03.264Z,20.2
2022-08-07T20:41:51.467Z,20.2
2022-08-07T20:43:51.634Z,20.2
2022-08-07T20:46:26.922Z,20.2
2022-08-07T20:47:56.140Z,20.2
2022-08-07T20:50:00.309Z,20.2
2022-08-07T20:51:52.630Z,20.2
2022-08-07T20:54:03.370Z,20.2
2022-08-07T20:55:56.988Z,20.2
2022-08-07T20:58:02.621Z,20.2
2022-08-07T21:00:08.219Z,20.1
2022-08-07T21:01:58.378Z,20.1
2022-08-07T21:04:19.463Z,20.1
2022-08-07T21:05:58.479Z,20
2022-08-07T21:07:59.312Z,20
2022-08-07T21:10:00.547Z,20
2022-08-07T21:12:01.537Z,19.9
2022-08-07T21:14:32.749Z,19.9
2022-08-07T21:16:01.104Z,19.9
2022-08-07T21:18:09.121Z,19.9
2022-08-07T21:20:04.496Z,19.9
2022-08-07T21:22:03.220Z,19.7
2022-08-07T21:24:06.304Z,19.7
2022-08-07T21:26:06.408Z,19.7
2022-08-07T21:28:09.479Z,19.7
2022-08-07T21:30:03.490Z,19.7
2022-08-07T21:32:47.612Z,19.7
2022-08-07T21:34:11.768Z,19.7
2022-08-07T21:36:12.242Z,19.6
2022-08-07T21:38:08.055Z,19.6
2022-08-07T21:40:08.022Z,19.6
2022-08-07T21:42:37.467Z,19.6
2022-08-07T21:44:14.672Z,19.6
2022-08-07T21:46:24.809Z,19.5
2022-08-07T21:48:28.861Z,19.5
2022-08-07T21:50:14.641Z,19.5
2022-08-07T21:52:11.754Z,19.5
2022-08-07T21:54:16.458Z,19.5
2022-08-07T21:56:35.708Z,19.5
2022-08-07T21:58:12.076Z,19.5
2022-08-07T22:00:21.947Z,19.4
2022-08-07T22:02:13.933Z,19.4
2022-08-07T22:04:11.944Z,19.4
2022-08-07T22:06:31.005Z,19.4
2022-08-07T22:08:10.536Z,19.4
2022-08-07T22:10:12.078Z,19.3
2022-08-07T22:12:13.537Z,19.2
2022-08-07T22:14:15.388Z,19.2
2022-08-07T22:16:42.548Z,19.1
2022-08-07T22:18:19.801Z,19.1
2022-08-07T22:20:22.707Z,19.1
2022-08-07T22:22:21.295Z,19.1
2022-08-07T22:24:16.731Z,19.1
2022-08-07T22:26:18.778Z,19.1
2022-08-07T22:28:30.862Z,19.1
2022-08-07T22:30:16.435Z,19.1
2022-08-07T22:32:33.359Z,19.1
2022-08-07T22:34:18.633Z,19.1
2022-08-07T22:36:21.961Z,19.1
2022-08-07T22:38:25.806Z,19.1
2022-08-07T22:40:22.146Z,19.1
2022-08-07T22:42:19.493Z,19.1
2022-08-07T22:44:20.528Z,19.1
2022-08-07T22:47:03.650Z,19.1
2022-08-07T22:48:54.947Z,19.1
2022-08-07T22:50:33.581Z,19.1
2022-08-07T22:52:37.476Z,19.1
2022-08-07T22:54:36.256Z,19.1
2022-08-07T22:56:28.860Z,19
2022-08-07T22:58:37.751Z,18.9
2022-08-07T23:00:21.469Z,18.9
2022-08-07T23:02:33.893Z,18.9
2022-08-07T23:04:44.173Z,18.9
2022-08-07T23:06:36.635Z,18.9
2022-08-07T23:08:46.239Z,18.9
2022-08-07T23:10:37.870Z,18.9
2022-08-07T23:12:34.259Z,18.9
2022-08-07T23:14:32.254Z,18.9
2022-08-07T23:16:46.667Z,18.7
2022-08-07T23:18:35.049Z,18.7
2022-08-07T23:20:40.521Z,18.7
2022-08-07T23:22:37.340Z,18.7
2022-08-07T23:24:32.582Z,18.7
2022-08-07T23:26:25.397Z,18.6
2022-08-07T23:28:53.336Z,18.6
2022-08-07T23:30:42.637Z,18.6
2022-08-07T23:34:19.472Z,18.6
2022-08-07T23:34:47.059Z,18.6
2022-08-07T23:36:43.167Z,18.5
2022-08-07T23:38:42.733Z,18.5
2022-08-07T23:40:32.432Z,18.5
2022-08-07T23:42:42.497Z,18.5
2022-08-07T23:44:57.056Z,18.5
2022-08-07T23:46:45.363Z,18.4
2022-08-07T23:48:39.392Z,18.4
2022-08-07T23:50:34.404Z,18.4
2022-08-07T23:53:01.917Z,18.3
2022-08-07T23:54:44.596Z,18.1
2022-08-07T23:56:37.804Z,18.2
2022-08-07T23:58:37.359Z,18.2
